Time;durP1;ratioP1;P1;durP2;ratioP2;P2;SDS_P1;SDS_P2;PMS_P1;PMS_P2;Temp;Humidity;BMP_temperature;BMP_pressure;BME280_temperature;BME280_humidity;BME280_pressure;Samples;Min_cycle;Max_cycle;Signal;HPM_P1;HPM_P2
2023/12/20 00:01:36;;;;;;;50.40;32.53;;;4.90;99.90;;;;;;5033886;28;20073;-71
2023/12/20 00:04:03;;;;;;;49.53;32.60;;;4.80;99.90;;;;;;5033380;28;20168;-71
2023/12/20 00:06:32;;;;;;;55.13;33.67;;;4.80;99.90;;;;;;5033047;28;20777;-71
2023/12/20 00:08:58;;;;;;;51.03;31.63;;;4.80;99.90;;;;;;5031012;28;20053;-71
2023/12/20 00:11:24;;;;;;;45.40;27.90;;;4.80;99.90;;;;;;5033618;28;20083;-71
2023/12/20 00:13:50;;;;;;;42.20;25.77;;;4.80;99.90;;;;;;5033432;28;20022;-71
2023/12/20 00:16:15;;;;;;;49.00;27.90;;;4.70;99.90;;;;;;5033469;28;20022;-71
2023/12/20 00:18:41;;;;;;;46.83;26.03;;;4.70;99.90;;;;;;5033181;28;20029;-71
2023/12/20 00:21:07;;;;;;;44.83;26.73;;;4.70;99.90;;;;;;5033425;28;20048;-71
2023/12/20 00:23:32;;;;;;;44.60;25.63;;;4.60;99.90;;;;;;5033395;28;20044;-70
2023/12/20 00:25:58;;;;;;;36.60;24.17;;;4.70;99.90;;;;;;5033393;28;20140;-70
2023/12/20 00:28:24;;;;;;;50.03;28.00;;;4.60;99.90;;;;;;5033139;28;20108;-71
2023/12/20 00:30:50;;;;;;;37.40;25.00;;;4.60;99.90;;;;;;5032897;28;20486;-71
2023/12/20 00:33:15;;;;;;;46.80;24.23;;;4.60;99.90;;;;;;5033051;28;20104;-71
2023/12/20 00:35:41;;;;;;;38.17;23.37;;;4.60;99.90;;;;;;5033032;28;20032;-71
2023/12/20 00:38:08;;;;;;;34.10;21.60;;;4.60;99.90;;;;;;5032988;28;20161;-71
2023/12/20 00:40:34;;;;;;;41.70;24.50;;;4.50;99.90;;;;;;5032891;28;20022;-71
2023/12/20 00:43:00;;;;;;;36.10;22.77;;;4.50;99.90;;;;;;5032909;28;20040;-70
2023/12/20 00:45:26;;;;;;;40.73;25.10;;;4.50;99.90;;;;;;5026053;28;20032;-71
2023/12/20 00:47:51;;;;;;;51.77;29.83;;;4.40;99.90;;;;;;5032845;28;20037;-71
2023/12/20 00:50:17;;;;;;;47.27;28.13;;;4.40;99.90;;;;;;5032926;28;20026;-71
2023/12/20 00:52:43;;;;;;;44.00;26.00;;;4.40;99.90;;;;;;5032767;28;20021;-70
2023/12/20 00:55:09;;;;;;;36.87;24.07;;;4.40;99.90;;;;;;5032690;28;20057;-70
2023/12/20 00:57:35;;;;;;;38.97;25.10;;;4.40;99.90;;;;;;5024366;28;20022;-70
2023/12/20 01:00:00;;;;;;;45.37;25.67;;;4.30;99.90;;;;;;5017533;28;20060;-71
2023/12/20 01:02:26;;;;;;;39.67;23.73;;;4.30;99.90;;;;;;5032219;28;20033;-71
2023/12/20 01:04:52;;;;;;;40.67;25.40;;;4.30;99.90;;;;;;5032702;28;20029;-70
2023/12/20 01:07:18;;;;;;;35.50;22.27;;;4.30;99.90;;;;;;5032835;28;20025;-70
2023/12/20 01:09:44;;;;;;;35.37;21.73;;;4.30;99.90;;;;;;5032591;28;20526;-71
2023/12/20 01:12:10;;;;;;;36.27;20.43;;;4.20;99.90;;;;;;5028569;28;20030;-71
2023/12/20 01:14:36;;;;;;;34.37;19.97;;;4.20;99.90;;;;;;5013093;28;20076;-71
2023/12/20 01:17:02;;;;;;;26.17;15.87;;;4.20;99.90;;;;;;5013084;28;20034;-71
2023/12/20 01:19:29;;;;;;;25.87;15.90;;;4.20;99.90;;;;;;5013082;28;20474;-71
2023/12/20 01:21:55;;;;;;;25.13;15.67;;;4.20;99.90;;;;;;5012772;28;20041;-71
2023/12/20 01:24:21;;;;;;;32.07;17.43;;;4.20;99.90;;;;;;5012622;28;20061;-71
2023/12/20 01:26:47;;;;;;;31.90;16.47;;;4.20;99.90;;;;;;5013925;28;20018;-71
2023/12/20 01:29:14;;;;;;;27.07;15.23;;;4.20;99.90;;;;;;5032647;28;20033;-71
2023/12/20 01:31:40;;;;;;;26.77;15.37;;;4.20;99.90;;;;;;5034149;28;20045;-71
2023/12/20 01:34:06;;;;;;;24.17;14.87;;;4.20;99.90;;;;;;5036914;28;20470;-71
2023/12/20 01:36:32;;;;;;;25.27;15.60;;;4.20;99.90;;;;;;5030429;28;20025;-71
2023/12/20 01:38:57;;;;;;;29.73;17.03;;;4.10;99.90;;;;;;5036951;28;20038;-71
2023/12/20 01:41:23;;;;;;;32.53;19.30;;;4.10;99.90;;;;;;5036463;28;20033;-71
2023/12/20 01:43:49;;;;;;;32.90;19.33;;;4.10;99.90;;;;;;5036579;28;20120;-71
2023/12/20 01:46:15;;;;;;;31.87;19.70;;;4.10;99.90;;;;;;5036498;28;20025;-71
2023/12/20 01:48:42;;;;;;;33.73;19.90;;;4.10;99.90;;;;;;5033086;28;20026;-71
2023/12/20 01:51:08;;;;;;;32.63;20.50;;;4.10;99.90;;;;;;5016244;28;20030;-71
2023/12/20 01:53:34;;;;;;;41.10;22.27;;;4.00;99.90;;;;;;5016596;28;20537;-71
2023/12/20 01:56:01;;;;;;;38.20;21.63;;;4.00;99.90;;;;;;5016145;28;20034;-71
2023/12/20 01:58:27;;;;;;;42.27;23.77;;;4.00;99.90;;;;;;5015108;28;20488;-71
2023/12/20 02:00:54;;;;;;;39.23;24.33;;;4.00;99.90;;;;;;5013596;28;20029;-71
2023/12/20 02:03:20;;;;;;;44.67;24.70;;;3.90;99.90;;;;;;5013692;28;20030;-71
2023/12/20 02:05:47;;;;;;;38.90;23.07;;;3.90;99.90;;;;;;5032573;28;20449;-71
2023/12/20 02:08:13;;;;;;;37.80;22.53;;;3.90;99.90;;;;;;5035576;28;20109;-71
2023/12/20 02:10:40;;;;;;;38.20;21.97;;;3.90;99.90;;;;;;5035666;28;20152;-71
2023/12/20 02:13:06;;;;;;;33.77;19.90;;;3.90;99.90;;;;;;5035408;28;20017;-71
2023/12/20 02:15:32;;;;;;;30.90;19.67;;;3.80;99.90;;;;;;5035876;28;20351;-71
2023/12/20 02:17:58;;;;;;;37.93;20.80;;;3.80;99.90;;;;;;5035459;28;20470;-71
2023/12/20 02:20:23;;;;;;;29.40;18.73;;;3.70;99.90;;;;;;5035075;28;20021;-71
2023/12/20 02:22:49;;;;;;;30.27;18.80;;;3.70;99.90;;;;;;5035257;28;20040;-71
2023/12/20 02:25:15;;;;;;;31.93;18.87;;;3.70;99.90;;;;;;5035636;28;20025;-71
2023/12/20 02:27:41;;;;;;;33.50;19.63;;;3.70;99.90;;;;;;5035432;28;20032;-71
2023/12/20 02:30:08;;;;;;;33.57;19.77;;;3.70;99.90;;;;;;5035561;28;20462;-71
2023/12/20 02:32:34;;;;;;;31.93;19.20;;;3.70;99.90;;;;;;5035699;28;20021;-71
2023/12/20 02:34:59;;;;;;;34.17;18.50;;;3.70;99.90;;;;;;5035148;28;20508;-71
2023/12/20 02:37:25;;;;;;;31.00;17.90;;;3.70;99.90;;;;;;5035160;28;20421;-71
2023/12/20 02:39:51;;;;;;;30.47;17.70;;;3.70;99.90;;;;;;5035434;28;20056;-71
2023/12/20 02:42:16;;;;;;;34.40;18.93;;;3.70;99.90;;;;;;5026318;28;20061;-71
2023/12/20 02:44:42;;;;;;;30.60;17.20;;;3.60;99.90;;;;;;5034309;28;20116;-71
2023/12/20 02:47:08;;;;;;;33.00;17.80;;;3.60;99.90;;;;;;5035109;28;20038;-71
2023/12/20 02:49:34;;;;;;;28.20;17.97;;;3.60;99.90;;;;;;5035137;28;20052;-71
2023/12/20 02:51:59;;;;;;;34.53;18.80;;;3.60;99.90;;;;;;5034935;28;20109;-71
2023/12/20 02:54:25;;;;;;;33.00;17.57;;;3.60;99.90;;;;;;5035087;28;20024;-71
2023/12/20 02:56:51;;;;;;;30.73;17.17;;;3.50;99.90;;;;;;5035325;28;20032;-71
2023/12/20 02:59:17;;;;;;;29.83;17.63;;;3.50;99.90;;;;;;5035405;28;20028;-71
2023/12/20 03:01:45;;;;;;;33.23;18.23;;;3.50;99.90;;;;;;5034873;28;20103;-71
2023/12/20 03:04:12;;;;;;;27.30;17.13;;;3.50;99.90;;;;;;5035019;28;20034;-71
2023/12/20 03:06:38;;;;;;;28.40;16.50;;;3.40;99.90;;;;;;5035286;28;20061;-71
2023/12/20 03:09:04;;;;;;;28.70;16.07;;;3.40;99.90;;;;;;5034522;28;20053;-71
2023/12/20 03:11:30;;;;;;;30.90;17.33;;;3.40;99.90;;;;;;5028398;28;20021;-71
2023/12/20 03:13:57;;;;;;;27.47;15.43;;;3.40;99.90;;;;;;5034681;28;20078;-71
2023/12/20 03:16:23;;;;;;;27.80;15.73;;;3.40;99.90;;;;;;5034803;28;20026;-71
2023/12/20 03:18:49;;;;;;;28.77;15.97;;;3.40;99.90;;;;;;5034693;28;20033;-71
2023/12/20 03:21:14;;;;;;;24.80;15.00;;;3.40;99.90;;;;;;5034764;28;20192;-71
2023/12/20 03:23:41;;;;;;;27.60;15.73;;;3.40;99.90;;;;;;5034876;28;20030;-71
2023/12/20 03:26:07;;;;;;;27.37;15.53;;;3.50;99.90;;;;;;5034692;28;20052;-71
2023/12/20 03:28:34;;;;;;;25.97;15.53;;;3.40;99.90;;;;;;5034459;28;20108;-71
2023/12/20 03:30:59;;;;;;;25.67;15.53;;;3.40;99.90;;;;;;5034506;28;20029;-71
2023/12/20 03:33:25;;;;;;;26.03;14.77;;;3.40;99.90;;;;;;5034101;28;20033;-71
2023/12/20 03:35:51;;;;;;;22.10;14.97;;;3.50;99.90;;;;;;5034114;28;20053;-71
2023/12/20 03:38:17;;;;;;;23.47;14.57;;;3.50;99.90;;;;;;5034314;28;20025;-71
2023/12/20 03:40:43;;;;;;;23.13;14.13;;;3.50;99.90;;;;;;5017857;28;20037;-71
2023/12/20 03:43:08;;;;;;;25.23;14.77;;;3.50;99.90;;;;;;5014303;28;20541;-71
2023/12/20 03:45:34;;;;;;;23.23;14.80;;;3.50;99.90;;;;;;5014180;28;20022;-71
2023/12/20 03:48:00;;;;;;;22.33;13.30;;;3.50;99.90;;;;;;5014666;28;20052;-71
2023/12/20 03:50:26;;;;;;;24.37;11.83;;;3.50;99.90;;;;;;5014283;28;20036;-71
2023/12/20 03:52:52;;;;;;;20.03;11.83;;;3.60;99.90;;;;;;5014441;28;20028;-71
2023/12/20 03:55:18;;;;;;;20.83;12.63;;;3.50;99.90;;;;;;5013842;28;20294;-71
2023/12/20 03:57:44;;;;;;;21.07;12.60;;;3.60;99.90;;;;;;5014199;28;20029;-71
2023/12/20 04:00:10;;;;;;;22.70;12.17;;;3.50;99.90;;;;;;5014146;28;20051;-71
2023/12/20 04:02:40;;;;;;;23.10;13.30;;;3.50;99.90;;;;;;5013789;28;20052;-71
2023/12/20 04:05:07;;;;;;;20.60;12.50;;;3.50;99.90;;;;;;5014177;28;20026;-71
2023/12/20 04:07:33;;;;;;;25.83;14.70;;;3.40;99.90;;;;;;5013889;28;20026;-71
2023/12/20 04:09:59;;;;;;;24.13;14.60;;;3.40;99.90;;;;;;5013802;28;20058;-71
2023/12/20 04:12:26;;;;;;;25.73;15.23;;;3.40;99.90;;;;;;5014020;28;20030;-71
2023/12/20 04:14:52;;;;;;;26.03;15.17;;;3.30;99.90;;;;;;5014003;28;20087;-71
2023/12/20 04:17:17;;;;;;;25.63;14.90;;;3.30;99.90;;;;;;5014190;28;20125;-71
2023/12/20 04:19:43;;;;;;;29.10;14.77;;;3.30;99.90;;;;;;5013991;28;20026;-71
2023/12/20 04:22:09;;;;;;;25.00;14.37;;;3.30;99.90;;;;;;5013808;28;20045;-71
2023/12/20 04:24:35;;;;;;;28.87;15.27;;;3.30;99.90;;;;;;5013620;28;20029;-71
2023/12/20 04:27:02;;;;;;;26.97;15.17;;;3.20;99.90;;;;;;5013590;28;20033;-71
2023/12/20 04:29:28;;;;;;;24.00;13.80;;;3.30;99.90;;;;;;5013401;28;20026;-70
2023/12/20 04:31:53;;;;;;;27.57;13.30;;;3.20;99.90;;;;;;5013711;28;20501;-71
2023/12/20 04:34:19;;;;;;;27.17;13.60;;;3.20;99.90;;;;;;5013405;28;20080;-71
2023/12/20 04:36:45;;;;;;;20.67;12.20;;;3.20;99.90;;;;;;5013233;28;20392;-71
2023/12/20 04:39:12;;;;;;;22.50;12.80;;;3.20;99.90;;;;;;5013649;28;20034;-70
2023/12/20 04:41:38;;;;;;;20.60;12.17;;;3.20;99.90;;;;;;5013488;28;20465;-71
2023/12/20 04:44:06;;;;;;;18.23;11.27;;;3.20;99.90;;;;;;5013126;28;20477;-71
2023/12/20 04:46:31;;;;;;;20.93;11.43;;;3.20;99.90;;;;;;5013339;28;20026;-71
2023/12/20 04:48:57;;;;;;;16.70;10.03;;;3.20;99.90;;;;;;5013541;28;20026;-71
2023/12/20 04:51:23;;;;;;;18.90;10.33;;;3.20;99.90;;;;;;5013527;28;20049;-71
2023/12/20 04:53:49;;;;;;;15.67;9.23;;;3.20;99.90;;;;;;5013129;28;20411;-71
2023/12/20 04:56:14;;;;;;;14.17;9.27;;;3.20;99.90;;;;;;5004777;28;20026;-71
2023/12/20 04:58:40;;;;;;;16.17;9.33;;;3.20;99.90;;;;;;5013099;28;20022;-71
2023/12/20 05:01:07;;;;;;;14.57;8.83;;;3.20;99.90;;;;;;5013332;28;20029;-71
2023/12/20 05:03:32;;;;;;;15.33;7.80;;;3.20;99.90;;;;;;5012761;28;20076;-71
2023/12/20 05:05:58;;;;;;;16.60;8.37;;;3.30;99.90;;;;;;5012524;28;20022;-71
2023/12/20 05:08:24;;;;;;;17.57;9.17;;;3.20;99.90;;;;;;5012945;28;20346;-71
2023/12/20 05:10:57;;;;;;;14.93;7.93;;;3.20;99.90;;;;;;5009613;28;20025;-71
2023/12/20 05:13:22;;;;;;;14.77;8.60;;;3.20;99.90;;;;;;5012996;28;20482;-71
2023/12/20 05:15:48;;;;;;;14.60;7.63;;;3.20;99.90;;;;;;5012972;28;20107;-71
2023/12/20 05:18:14;;;;;;;14.63;7.53;;;3.20;99.90;;;;;;5013095;28;20148;-71
2023/12/20 05:20:40;;;;;;;18.70;7.70;;;3.20;99.90;;;;;;5012896;28;20030;-71
2023/12/20 05:23:07;;;;;;;16.10;7.57;;;3.20;99.90;;;;;;5012931;28;20113;-71
2023/12/20 05:25:33;;;;;;;15.63;9.23;;;3.30;99.90;;;;;;5012977;28;20022;-71
2023/12/20 05:27:58;;;;;;;12.13;6.73;;;3.30;99.90;;;;;;5012646;28;20029;-71
2023/12/20 05:30:24;;;;;;;12.97;6.13;;;3.20;99.90;;;;;;5012636;28;20026;-71
2023/12/20 05:32:51;;;;;;;12.27;5.80;;;3.20;99.90;;;;;;5012624;28;20112;-71
2023/12/20 05:35:17;;;;;;;11.00;6.57;;;3.20;99.90;;;;;;5013082;28;20033;-71
2023/12/20 05:37:42;;;;;;;11.30;6.13;;;3.20;99.90;;;;;;5012776;28;20471;-71
2023/12/20 05:40:12;;;;;;;12.97;5.83;;;3.30;99.90;;;;;;5012984;28;20109;-71
2023/12/20 05:42:38;;;;;;;15.37;7.07;;;3.30;99.90;;;;;;5007440;28;20096;-71
2023/12/20 05:45:05;;;;;;;12.70;7.93;;;3.30;99.90;;;;;;5012786;28;20021;-71
2023/12/20 05:47:31;;;;;;;16.30;8.97;;;3.30;99.90;;;;;;5012648;28;20033;-71
2023/12/20 05:49:56;;;;;;;16.33;9.10;;;3.30;99.90;;;;;;5012448;28;20390;-71
2023/12/20 05:52:22;;;;;;;16.63;10.07;;;3.20;99.90;;;;;;5012678;28;20040;-71
2023/12/20 05:54:48;;;;;;;22.43;9.97;;;3.20;99.90;;;;;;5012514;28;20160;-71
2023/12/20 05:57:14;;;;;;;19.67;10.90;;;3.10;99.90;;;;;;5012409;28;20042;-71
2023/12/20 05:59:39;;;;;;;18.47;10.20;;;3.10;99.90;;;;;;5012277;28;20474;-71
2023/12/20 06:02:06;;;;;;;20.33;10.60;;;3.00;99.90;;;;;;5012567;28;20042;-70
2023/12/20 06:04:32;;;;;;;21.87;11.27;;;3.00;99.90;;;;;;5012381;28;20034;-71
2023/12/20 06:06:57;;;;;;;23.07;12.83;;;2.90;99.90;;;;;;5012682;28;20022;-71
2023/12/20 06:09:23;;;;;;;23.97;11.30;;;2.90;99.90;;;;;;5012229;28;20038;-70
2023/12/20 06:11:49;;;;;;;23.30;10.80;;;2.80;99.90;;;;;;5011966;28;20022;-71
2023/12/20 06:14:15;;;;;;;18.87;10.03;;;2.80;99.90;;;;;;5012573;28;20026;-70
2023/12/20 06:16:41;;;;;;;19.50;10.43;;;2.80;99.90;;;;;;5012764;28;20033;-70
2023/12/20 06:19:06;;;;;;;16.67;9.27;;;2.90;99.90;;;;;;5015877;28;20022;-70
2023/12/20 06:21:32;;;;;;;15.70;9.70;;;2.80;99.90;;;;;;5015719;28;20032;-70
2023/12/20 06:24:00;;;;;;;21.50;10.03;;;2.90;99.90;;;;;;5016062;28;20022;-71
2023/12/20 06:26:25;;;;;;;19.07;9.97;;;2.80;99.90;;;;;;5008986;28;20117;-71
2023/12/20 06:28:51;;;;;;;18.57;9.50;;;2.90;99.90;;;;;;5015715;28;20106;-71
2023/12/20 06:31:17;;;;;;;18.10;10.50;;;2.90;99.90;;;;;;5015535;28;20046;-71
2023/12/20 06:33:43;;;;;;;20.37;9.67;;;2.80;99.90;;;;;;5015608;28;20093;-71
2023/12/20 06:36:13;;;;;;;17.30;9.50;;;2.80;99.90;;;;;;5015634;28;20025;-71
2023/12/20 06:38:38;;;;;;;16.43;9.37;;;2.80;99.90;;;;;;5015528;28;20083;-70
2023/12/20 06:41:04;;;;;;;16.83;9.30;;;2.90;99.90;;;;;;5015392;28;20417;-71
2023/12/20 06:43:30;;;;;;;14.77;9.33;;;2.90;99.90;;;;;;5015412;28;20037;-71
2023/12/20 06:45:57;;;;;;;23.53;10.80;;;2.90;99.90;;;;;;5015589;28;20022;-70
2023/12/20 06:48:22;;;;;;;24.50;12.67;;;2.90;99.90;;;;;;5015315;28;20389;-71
2023/12/20 06:50:48;;;;;;;20.50;11.80;;;2.90;99.90;;;;;;5015395;28;20108;-70
2023/12/20 06:53:14;;;;;;;21.00;12.20;;;3.00;99.90;;;;;;5015330;28;20105;-70
2023/12/20 06:55:39;;;;;;;23.20;11.70;;;3.00;99.90;;;;;;5015165;28;20030;-70
2023/12/20 06:58:06;;;;;;;20.23;11.67;;;3.10;99.90;;;;;;5015395;28;20033;-70
2023/12/20 07:00:33;;;;;;;29.37;12.53;;;3.10;99.90;;;;;;5015485;28;20034;-70
2023/12/20 07:02:59;;;;;;;52.83;12.77;;;3.10;99.90;;;;;;5014961;28;20048;-70
2023/12/20 07:05:25;;;;;;;70.03;14.83;;;3.20;99.90;;;;;;5014939;28;20524;-71
2023/12/20 07:07:51;;;;;;;53.97;13.57;;;3.10;99.90;;;;;;5015122;28;20117;-70
2023/12/20 07:10:16;;;;;;;44.67;12.57;;;3.20;99.90;;;;;;5015113;28;20096;-71
2023/12/20 07:12:42;;;;;;;32.47;12.63;;;3.20;99.90;;;;;;5015243;28;20029;-70
2023/12/20 07:15:08;;;;;;;36.87;11.53;;;3.20;99.90;;;;;;5015111;28;20105;-70
2023/12/20 07:17:34;;;;;;;33.10;12.40;;;3.20;99.90;;;;;;5015157;28;20177;-71
2023/12/20 07:20:03;;;;;;;94.77;19.93;;;3.30;99.90;;;;;;5015161;28;20112;-71
2023/12/20 07:22:33;;;;;;;100.77;17.10;;;3.20;99.90;;;;;;5014867;28;20052;-71
2023/12/20 07:24:59;;;;;;;103.27;19.20;;;3.30;99.90;;;;;;5015640;28;20025;-71
2023/12/20 07:27:26;;;;;;;102.67;19.30;;;3.30;99.90;;;;;;5023063;28;20493;-70
2023/12/20 07:29:52;;;;;;;108.07;16.13;;;3.40;99.90;;;;;;5033265;28;20061;-70
2023/12/20 07:32:18;;;;;;;77.77;15.50;;;3.40;99.90;;;;;;5034165;28;20080;-70
2023/12/20 07:34:44;;;;;;;83.63;15.70;;;3.50;99.90;;;;;;5034147;28;20021;-70
2023/12/20 07:37:11;;;;;;;108.33;17.60;;;3.60;99.90;;;;;;5033870;28;20021;-70
2023/12/20 07:39:39;;;;;;;121.97;18.53;;;3.60;99.90;;;;;;5034013;28;20495;-71
2023/12/20 07:42:05;;;;;;;79.60;15.57;;;3.60;99.90;;;;;;5034171;28;20041;-70
2023/12/20 07:44:31;;;;;;;57.60;13.83;;;3.70;99.90;;;;;;5034325;28;20025;-70
2023/12/20 07:46:57;;;;;;;60.87;14.60;;;3.70;99.90;;;;;;5033025;28;20069;-71
2023/12/20 07:49:23;;;;;;;63.27;15.13;;;3.80;99.90;;;;;;5031461;28;20477;-71
2023/12/20 07:51:49;;;;;;;47.00;12.60;;;3.90;99.90;;;;;;5024870;28;20030;-70
2023/12/20 07:54:15;;;;;;;58.60;13.37;;;3.90;99.90;;;;;;5032596;28;20079;-70
2023/12/20 07:56:41;;;;;;;48.50;15.17;;;4.10;99.90;;;;;;5015730;28;20033;-70
2023/12/20 07:59:07;;;;;;;63.23;14.17;;;4.10;99.90;;;;;;5033762;28;20499;-71
2023/12/20 08:01:33;;;;;;;42.27;14.33;;;4.10;99.90;;;;;;5033027;28;20029;-72
2023/12/20 08:03:59;;;;;;;50.30;13.77;;;4.20;99.90;;;;;;5033521;28;20104;-69
2023/12/20 08:06:25;;;;;;;53.37;15.13;;;4.10;99.90;;;;;;5033814;28;20155;-71
2023/12/20 08:08:50;;;;;;;47.40;15.83;;;4.20;99.90;;;;;;5033501;28;20052;-72
2023/12/20 08:11:17;;;;;;;52.27;14.30;;;4.20;99.90;;;;;;5033128;28;20032;-71
2023/12/20 08:13:43;;;;;;;54.60;15.07;;;4.20;99.90;;;;;;5033413;28;20017;-72
2023/12/20 08:16:09;;;;;;;56.13;16.47;;;4.30;99.90;;;;;;5033260;28;20355;-71
2023/12/20 08:18:34;;;;;;;51.87;17.10;;;4.30;99.90;;;;;;5033128;28;20021;-72
2023/12/20 08:21:01;;;;;;;54.40;15.27;;;4.30;99.90;;;;;;5033125;28;20482;-71
2023/12/20 08:23:27;;;;;;;51.00;15.80;;;4.30;99.90;;;;;;5033567;28;20433;-71
2023/12/20 08:25:52;;;;;;;49.90;16.53;;;4.30;99.90;;;;;;5033159;28;20029;-71
2023/12/20 08:28:18;;;;;;;53.20;15.80;;;4.30;99.90;;;;;;5031171;28;20030;-71
2023/12/20 08:30:44;;;;;;;36.53;16.57;;;4.30;99.90;;;;;;5030699;28;20048;-70
2023/12/20 08:33:12;;;;;;;36.30;15.57;;;4.30;99.90;;;;;;5032288;28;20030;-70
2023/12/20 08:35:41;;;;;;;41.20;17.37;;;4.40;99.90;;;;;;5032872;28;20034;-69
2023/12/20 08:38:07;;;;;;;44.30;20.90;;;4.40;99.90;;;;;;5012006;28;20018;-69
2023/12/20 08:40:32;;;;;;;49.43;23.30;;;4.40;99.90;;;;;;5023373;28;20026;-69
2023/12/20 08:42:58;;;;;;;56.83;22.10;;;4.40;99.90;;;;;;5030524;28;20030;-70
2023/12/20 08:45:24;;;;;;;42.83;20.67;;;4.40;99.90;;;;;;5028001;28;20017;-70
2023/12/20 08:47:50;;;;;;;46.13;19.73;;;4.40;99.90;;;;;;5025088;28;20083;-70
2023/12/20 08:50:16;;;;;;;38.47;21.70;;;4.40;99.90;;;;;;5012897;28;20024;-71
2023/12/20 08:52:42;;;;;;;35.60;19.33;;;4.40;99.90;;;;;;5013081;28;20382;-71
2023/12/20 08:55:10;;;;;;;29.37;17.77;;;4.40;99.90;;;;;;5013007;28;20014;-70
2023/12/20 08:57:36;;;;;;;29.87;15.83;;;4.50;99.90;;;;;;5012736;28;20500;-71
2023/12/20 09:00:03;;;;;;;36.43;18.60;;;4.50;99.90;;;;;;5012740;28;20037;-70
2023/12/20 09:02:28;;;;;;;41.97;20.57;;;4.50;99.90;;;;;;5013002;28;20117;-71
2023/12/20 09:04:55;;;;;;;40.10;19.60;;;4.50;99.90;;;;;;5013366;28;20110;-71
2023/12/20 09:07:25;;;;;;;39.77;18.83;;;4.60;99.90;;;;;;5005501;28;20026;-71
2023/12/20 09:09:52;;;;;;;36.40;18.50;;;4.70;99.90;;;;;;5012396;28;20042;-71
2023/12/20 09:12:21;;;;;;;45.73;17.27;;;4.70;99.90;;;;;;5012932;28;20105;-71
2023/12/20 09:14:49;;;;;;;37.57;15.97;;;4.70;99.90;;;;;;5013008;28;20021;-71
2023/12/20 09:17:16;;;;;;;35.87;15.67;;;4.70;99.90;;;;;;5013007;28;20478;-70
2023/12/20 09:19:43;;;;;;;30.77;15.43;;;4.80;99.90;;;;;;5012632;28;20037;-71
2023/12/20 09:22:09;;;;;;;38.13;15.57;;;4.80;99.90;;;;;;5012755;28;20041;-71
2023/12/20 09:24:35;;;;;;;24.50;15.00;;;4.90;99.90;;;;;;5012669;28;20573;-71
2023/12/20 09:27:01;;;;;;;26.87;14.43;;;4.90;99.90;;;;;;5012667;28;20025;-70
2023/12/20 09:29:27;;;;;;;26.60;11.97;;;4.90;99.90;;;;;;5012825;28;20026;-71
2023/12/20 09:31:53;;;;;;;29.27;11.87;;;5.00;99.90;;;;;;5012839;28;20105;-70
2023/12/20 09:34:18;;;;;;;25.93;11.13;;;5.10;99.90;;;;;;5012828;28;20060;-71
2023/12/20 09:36:46;;;;;;;20.30;11.87;;;5.10;99.90;;;;;;5023994;28;20029;-70
2023/12/20 09:39:20;;;;;;;19.53;10.17;;;5.10;99.90;;;;;;5013035;28;20030;-70
2023/12/20 09:42:00;;;;;;;19.90;10.63;;;5.20;99.90;;;;;;5012524;28;20056;-70
2023/12/20 09:44:26;;;;;;;18.83;10.97;;;5.20;99.90;;;;;;5012826;28;20474;-70
2023/12/20 09:46:54;;;;;;;17.87;10.97;;;5.20;99.90;;;;;;5009649;28;20084;-70
2023/12/20 09:49:21;;;;;;;22.60;10.90;;;5.30;99.90;;;;;;5012956;28;20394;-70
2023/12/20 09:51:47;;;;;;;19.60;10.60;;;5.40;99.90;;;;;;5014597;28;20030;-71
2023/12/20 09:54:15;;;;;;;32.60;14.27;;;5.40;99.90;;;;;;5033520;28;20021;-70
2023/12/20 09:56:41;;;;;;;36.53;14.87;;;5.40;99.90;;;;;;5035878;28;20052;-70
2023/12/20 09:59:07;;;;;;;32.00;16.80;;;5.40;99.90;;;;;;5035785;28;20029;-70
2023/12/20 10:01:35;;;;;;;34.53;16.83;;;5.40;99.90;;;;;;5027524;28;20034;-70
2023/12/20 10:04:06;;;;;;;36.73;16.37;;;5.50;99.90;;;;;;5036256;28;20036;-71
2023/12/20 10:06:32;;;;;;;29.13;14.90;;;5.50;99.90;;;;;;5029864;28;20029;-70
2023/12/20 10:08:58;;;;;;;31.43;14.97;;;5.50;99.90;;;;;;5032999;23;20170;-71
2023/12/20 10:11:25;;;;;;;32.77;14.07;;;5.50;99.90;;;;;;5038943;28;20489;-71
2023/12/20 10:13:51;;;;;;;27.37;11.90;;;5.50;99.90;;;;;;5048385;28;20025;-71
2023/12/20 10:16:17;;;;;;;26.70;12.93;;;5.60;99.90;;;;;;5035895;28;20025;-71
2023/12/20 10:18:42;;;;;;;28.53;14.63;;;5.60;99.90;;;;;;5035982;28;20100;-70
2023/12/20 10:21:11;;;;;;;30.37;16.17;;;5.60;99.90;;;;;;5035507;28;20160;-71
2023/12/20 10:23:39;;;;;;;35.57;16.27;;;5.60;99.90;;;;;;5035660;28;20040;-70
2023/12/20 10:26:04;;;;;;;24.57;15.40;;;5.70;99.90;;;;;;5035442;28;20029;-71
2023/12/20 10:28:34;;;;;;;26.33;13.53;;;5.70;99.90;;;;;;5035485;28;20025;-71
2023/12/20 10:31:00;;;;;;;23.10;13.80;;;5.70;99.90;;;;;;5035537;28;20025;-71
2023/12/20 10:33:28;;;;;;;29.23;13.60;;;5.70;99.90;;;;;;5035834;28;20108;-71
2023/12/20 10:35:55;;;;;;;27.87;13.63;;;5.70;99.90;;;;;;5035388;28;20018;-70
2023/12/20 10:38:22;;;;;;;25.53;12.77;;;5.80;99.90;;;;;;5035089;28;20532;-71
2023/12/20 10:40:49;;;;;;;31.20;13.10;;;5.80;99.90;;;;;;5035386;28;20060;-70
2023/12/20 10:43:15;;;;;;;31.27;14.13;;;5.80;99.90;;;;;;5035366;28;20464;-71
2023/12/20 10:45:43;;;;;;;38.73;14.80;;;5.80;99.90;;;;;;5032709;28;20037;-70
2023/12/20 10:48:14;;;;;;;20.50;10.37;;;5.80;99.90;;;;;;5030366;28;20036;-71
2023/12/20 10:50:41;;;;;;;20.97;9.50;;;5.90;99.90;;;;;;5035088;28;20485;-71
2023/12/20 10:53:07;;;;;;;15.83;9.50;;;5.90;99.90;;;;;;5035222;28;20017;-71
2023/12/20 10:55:34;;;;;;;22.43;11.30;;;5.90;99.90;;;;;;5035215;28;20017;-71
2023/12/20 10:58:08;;;;;;;19.73;11.43;;;5.90;99.90;;;;;;5017306;28;20032;-71
2023/12/20 11:00:41;;;;;;;16.43;11.00;;;6.00;99.90;;;;;;5034796;28;20083;-71
2023/12/20 11:03:10;;;;;;;25.87;13.53;;;6.00;99.90;;;;;;5034280;28;20036;-71
2023/12/20 11:05:59;;;;;;;30.03;14.60;;;6.00;99.90;;;;;;5033467;28;20033;-72
2023/12/20 11:08:45;;;;;;;33.07;14.53;;;6.10;99.90;;;;;;5013365;28;20132;-71
2023/12/20 11:11:32;;;;;;;25.93;14.73;;;6.10;99.90;;;;;;5015122;28;20091;-71
2023/12/20 11:14:05;;;;;;;25.10;14.53;;;6.10;99.90;;;;;;5014908;28;20126;-71
2023/12/20 11:16:33;;;;;;;;;;;6.10;99.90;;;;;;5014947;28;20022;-71
2023/12/20 11:19:05;;;;;;;29.70;13.93;;;6.20;99.90;;;;;;5014778;28;19909;-71
2023/12/20 11:21:31;;;;;;;24.08;14.10;;;6.20;99.90;;;;;;5014876;28;20038;-71
2023/12/20 11:23:57;;;;;;;28.23;13.63;;;6.20;99.90;;;;;;5014913;28;20108;-71
2023/12/20 11:26:28;;;;;;;27.73;14.57;;;6.20;99.90;;;;;;5014414;28;20092;-71
2023/12/20 11:28:54;;;;;;;29.27;14.77;;;6.30;99.90;;;;;;5014688;28;20088;-71
2023/12/20 11:31:20;;;;;;;23.03;13.27;;;6.30;99.90;;;;;;5014525;28;20109;-71
2023/12/20 11:33:51;;;;;;;25.10;14.37;;;6.30;99.90;;;;;;5014594;28;20026;-71
2023/12/20 11:36:20;;;;;;;35.37;15.53;;;6.30;99.90;;;;;;5014758;28;20041;-71
2023/12/20 11:38:59;;;;;;;24.57;14.67;;;6.40;99.90;;;;;;5014322;28;20440;-71
2023/12/20 11:41:26;;;;;;;26.50;14.50;;;6.40;99.90;;;;;;5013036;28;20038;-71
2023/12/20 11:43:56;;;;;;;29.70;14.20;;;6.40;99.90;;;;;;5014295;28;20389;-71
2023/12/20 11:46:22;;;;;;;19.73;13.30;;;6.40;99.90;;;;;;5014333;28;20028;-71
2023/12/20 11:48:48;;;;;;;22.00;12.07;;;6.50;99.90;;;;;;5014369;28;20030;-71
2023/12/20 11:51:14;;;;;;;24.37;11.10;;;6.50;99.90;;;;;;5014164;28;20072;-71
2023/12/20 11:53:42;;;;;;;20.20;10.77;;;6.50;99.90;;;;;;5014353;28;20022;-71
2023/12/20 11:56:08;;;;;;;18.67;11.10;;;6.60;99.90;;;;;;5014400;28;20101;-71
2023/12/20 11:58:35;;;;;;;21.73;10.50;;;6.60;99.90;;;;;;5014333;28;20056;-71
2023/12/20 12:01:04;;;;;;;17.90;10.47;;;6.60;99.90;;;;;;5014249;28;20026;-71
2023/12/20 12:03:30;;;;;;;18.87;11.83;;;6.70;99.90;;;;;;5014265;28;20040;-71
2023/12/20 12:05:56;;;;;;;20.87;12.13;;;6.70;99.90;;;;;;5013933;28;20408;-71
2023/12/20 12:08:21;;;;;;;26.63;12.10;;;6.70;99.90;;;;;;5017062;28;20064;-71
2023/12/20 12:10:47;;;;;;;22.43;11.63;;;6.80;99.90;;;;;;5033944;28;20033;-71
2023/12/20 12:13:14;;;;;;;19.20;11.03;;;6.80;99.90;;;;;;5033717;28;20034;-71
2023/12/20 12:15:42;;;;;;;19.93;11.33;;;6.90;99.90;;;;;;5015782;28;20037;-70
2023/12/20 12:18:08;;;;;;;20.33;11.20;;;6.90;99.90;;;;;;5033809;28;20064;-71
2023/12/20 12:20:33;;;;;;;20.90;11.00;;;7.00;99.90;;;;;;5034174;28;20434;-71
2023/12/20 12:23:04;;;;;;;19.40;10.87;;;7.00;99.90;;;;;;5033425;28;20041;-71
2023/12/20 12:25:31;;;;;;;25.60;10.70;;;7.00;99.90;;;;;;5033417;28;20112;-71
2023/12/20 12:28:01;;;;;;;32.17;13.57;;;7.10;99.90;;;;;;5031385;28;20025;-71
2023/12/20 12:30:28;;;;;;;27.63;12.33;;;7.10;99.90;;;;;;5030756;28;20084;-71
2023/12/20 12:32:55;;;;;;;24.97;12.27;;;7.10;99.90;;;;;;5030526;28;20030;-71
2023/12/20 12:35:21;;;;;;;22.33;12.57;;;7.20;99.90;;;;;;5032600;28;20017;-70